Beatriz Paulo — CULC6 — position and weather

sailwx.info

Track history (hours):
 
Tides and Currents Weather Stations Pressure Air Temp Water Temp Dewpoint Dewpoint Depression Visibility Wind Speed Wind Dir Waves Ship Positions

Beatriz Paulo

Last reported at 2017-Nov-20 00:31 UTC. Time now 2017-Nov-21 06:21 UTC.
Position N 38°34' W 009°18'.

Length 22 m.

Type: Fishing. MMSI: 263500236.

Date/timePositionNaut miles runAvg speedWind from/ knotsBaromVisibWave heightAir tempDewpointWater temp
2017-Nov-20 00:31N 38°34' W 009°18'1 1.7
2017-Nov-20 00:00N 38°34' W 009°19'4 7.5
2017-Nov-19 23:31N 38°31' W 009°16'4 8.8
2017-Nov-19 23:01N 38°27' W 009°14'4 7.1
2017-Nov-19 22:31N 38°24' W 009°11'4 8.3
2017-Nov-19 22:01N 38°26' W 009°07'  
2017-Nov-17 11:17N 38°26' W 009°07'2 6.1
2017-Nov-17 11:00N 38°26' W 009°05'5 9.2
2017-Nov-17 10:30N 38°24' W 008°59'5 9.2
2017-Nov-17 10:00N 38°22' W 008°54'3 6.3
2017-Nov-17 09:30N 38°20' W 008°50'1 1.2
2017-Nov-17 09:00N 38°21' W 008°51'3 6.1
2017-Nov-17 08:30N 38°18' W 008°49'4 7.1
2017-Nov-17 08:00N 38°15' W 008°48'3 6.0
2017-Nov-17 07:30N 38°18' W 008°49'2 3.5
2017-Nov-17 07:00N 38°19' W 008°50'1 1.3
2017-Nov-17 06:30N 38°19' W 008°50'0 0.3
2017-Nov-17 06:00N 38°19' W 008°50'0 0.4
2017-Nov-17 05:30N 38°19' W 008°50'0 0.9
2017-Nov-17 05:00N 38°18' W 008°50'4 8.6
2017-Nov-17 04:30N 38°21' W 008°54'4 8.5
2017-Nov-17 04:00N 38°23' W 008°59'4 8.5
2017-Nov-17 03:30N 38°25' W 009°04'3 5.1
2017-Nov-17 03:00N 38°26' W 009°07'0 0.0
2017-Nov-16 15:30N 38°26' W 009°07'0 0.3
2017-Nov-16 15:01N 38°26' W 009°07'0 0.2
2017-Nov-16 14:31N 38°26' W 009°07'0 0.0
2017-Nov-16 14:01N 38°26' W 009°07'0 0.0
2017-Nov-16 13:31N 38°26' W 009°07'0 0.0
2017-Nov-16 13:01N 38°26' W 009°07'0 0.0
2017-Nov-16 12:30N 38°26' W 009°07'0 0.0
2017-Nov-16 12:00N 38°26' W 009°07'4 7.3
2017-Nov-16 11:31N 38°25' W 009°03'5 9.1
2017-Nov-16 11:01N 38°23' W 008°57'5 9.1
2017-Nov-16 10:31N 38°21' W 008°52'3 5.5
2017-Nov-16 10:01N 38°19' W 008°51'0 0.3
2017-Nov-16 09:31N 38°19' W 008°50'0 0.3
2017-Nov-16 09:01N 38°19' W 008°50'0 0.1
2017-Nov-16 08:30N 38°19' W 008°50'0 0.2
2017-Nov-16 08:00N 38°19' W 008°50'1 1.6
2017-Nov-16 07:30N 38°19' W 008°51'0 0.2
2017-Nov-16 06:59N 38°18' W 008°51'0 0.1
2017-Nov-16 06:31N 38°18' W 008°51'0 0.7
2017-Nov-16 06:01N 38°19' W 008°51'0 0.2
2017-Nov-16 05:30N 38°19' W 008°51'0 0.3
2017-Nov-16 05:01N 38°19' W 008°51'0 0.8
2017-Nov-16 04:31N 38°19' W 008°50'3 5.5
2017-Nov-16 04:01N 38°20' W 008°53'4 8.9
2017-Nov-16 03:30N 38°23' W 008°57'8 5.5
2017-Nov-16 02:01N 38°26' W 009°07'0 0.2
2017-Nov-16 02:00N 38°26' W 009°07'0 0.0
2017-Nov-16 01:30N 38°26' W 009°07'0 0.0
2017-Nov-16 00:59N 38°26' W 009°07'0 0.0
2017-Nov-16 00:30N 38°26' W 009°07'0 0.0
2017-Nov-16 00:00N 38°26' W 009°07'0 0.0
2017-Nov-15 23:30N 38°26' W 009°07'0 0.0
2017-Nov-15 23:00N 38°26' W 009°07'0 0.0
2017-Nov-15 22:30N 38°26' W 009°07'0 0.0
2017-Nov-15 22:00N 38°26' W 009°07'0 0.0
2017-Nov-15 21:30N 38°26' W 009°07'0 0.0
2017-Nov-15 21:00N 38°26' W 009°07'0 0.0
2017-Nov-15 20:30N 38°26' W 009°07'0 0.0
2017-Nov-15 20:00N 38°26' W 009°07'0 0.0
2017-Nov-15 19:30N 38°26' W 009°07'0 0.0
2017-Nov-15 19:00N 38°26' W 009°07'0 0.0
2017-Nov-15 18:30N 38°26' W 009°07'0 0.0
2017-Nov-15 18:00N 38°26' W 009°07'0 0.0
2017-Nov-15 17:30N 38°26' W 009°07'0 0.0
2017-Nov-15 17:00N 38°26' W 009°07'0 0.0
2017-Nov-15 16:30N 38°26' W 009°07'0 0.0
2017-Nov-15 15:59N 38°26' W 009°07'0 0.0
2017-Nov-15 15:30N 38°26' W 009°07'0 0.0
2017-Nov-15 15:00N 38°26' W 009°07'0 0.0
2017-Nov-15 14:30N 38°26' W 009°07'0 0.0
2017-Nov-15 14:00N 38°26' W 009°07'0 0.1
2017-Nov-15 13:30N 38°26' W 009°07'0 0.0
2017-Nov-15 13:00N 38°26' W 009°07'3 6.3
2017-Nov-15 12:30N 38°25' W 009°03'5 9.1
2017-Nov-15 12:00N 38°23' W 008°58'5 8.9
2017-Nov-15 11:23N 38°21' W 008°51'0 0.9
2017-Nov-15 11:00N 38°21' W 008°51'0 0.5
2017-Nov-15 10:30N 38°21' W 008°51'0 0.2
2017-Nov-15 09:52N 38°21' W 008°51'0 0.0
2017-Nov-15 09:05N 38°21' W 008°51'0 1.2
2017-Nov-15 09:00N 38°21' W 008°51'3 6.1
2017-Nov-15 08:30N 38°18' W 008°51'0 0.2
2017-Nov-15 08:00N 38°18' W 008°51'0 0.2
2017-Nov-15 07:30N 38°18' W 008°51'0 0.3
2017-Nov-15 07:00N 38°18' W 008°51'0 0.7
2017-Nov-15 06:28N 38°18' W 008°51'0 0.3
2017-Nov-15 06:00N 38°18' W 008°50'2 4.6
2017-Nov-15 05:30N 38°20' W 008°53'4 8.7
2017-Nov-15 05:00N 38°22' W 008°57'4 8.7
2017-Nov-15 04:30N 38°24' W 009°02'4 8.2
2017-Nov-15 04:00N 38°26' W 009°07'0 0.0
2017-Nov-15 03:30N 38°26' W 009°07'0 0.0
2017-Nov-14 14:42N 38°26' W 009°07'0 0.9
2017-Nov-14 14:30N 38°26' W 009°07'0 0.0
2017-Nov-14 14:00N 38°26' W 009°07'2 3.2
2017-Nov-14 13:30N 38°26' W 009°05'4 8.8
2017-Nov-14 13:00N 38°24' W 008°60'5 8.9
2017-Nov-14 12:29N 38°22' W 008°54'3 6.5
2017-Nov-14 12:00N 38°20' W 008°51'0 0.5
2017-Nov-14 11:28N 38°21' W 008°51'0 0.2
2017-Nov-14 11:00N 38°21' W 008°51'0 0.1
2017-Nov-14 10:17N 38°21' W 008°51'0 0.1
2017-Nov-14 10:00N 38°21' W 008°51'2 4.9
2017-Nov-14 09:30N 38°18' W 008°51'1 1.0
2017-Nov-14 09:00N 38°18' W 008°52'0 0.6
2017-Nov-14 08:30N 38°18' W 008°51'0 0.4
2017-Nov-14 08:00N 38°18' W 008°51'0 0.1
2017-Nov-14 07:30N 38°18' W 008°51'0 0.1
2017-Nov-14 07:00N 38°18' W 008°51'1 2.6
2017-Nov-14 06:30N 38°19' W 008°50'1 1.4
2017-Nov-14 06:00N 38°20' W 008°50'1 3.0
2017-Nov-14 05:30N 38°21' W 008°52'4 8.7
2017-Nov-14 05:00N 38°23' W 008°57'4 8.7
2017-Nov-14 04:30N 38°25' W 009°02'4 8.6
2017-Nov-14 04:00N 38°26' W 009°07'0 0.1
2017-Nov-14 03:30N 38°26' W 009°07'  
2017-Nov-11 16:58N 38°26' W 009°07'0 0.1
2017-Nov-11 16:30N 38°26' W 009°07'0 0.0
2017-Nov-11 16:00N 38°26' W 009°07'0 0.0
2017-Nov-11 15:30N 38°26' W 009°07'0 0.0
2017-Nov-11 15:00N 38°26' W 009°07'0 0.0
2017-Nov-10 15:09N 38°26' W 009°07'0 1.2
2017-Nov-10 15:00N 38°26' W 009°07'0 0.0
2017-Nov-10 14:30N 38°26' W 009°07'0 0.0
2017-Nov-10 13:57N 38°26' W 009°07'3 7.0
2017-Nov-10 13:30N 38°25' W 009°03'4 8.8
2017-Nov-10 13:00N 38°22' W 008°59'4 8.6
2017-Nov-10 12:29N 38°20' W 008°54'3 6.6
2017-Nov-10 12:00N 38°19' W 008°50'0 0.9
2017-Nov-10 11:30N 38°19' W 008°50'0 0.8
2017-Nov-10 11:00N 38°19' W 008°50'0 0.6
2017-Nov-10 10:25N 38°20' W 008°50'0 0.3
2017-Nov-10 10:00N 38°20' W 008°50'0 0.2
2017-Nov-10 09:28N 38°20' W 008°50'2 3.8
2017-Nov-10 09:00N 38°18' W 008°51'3 6.8
2017-Nov-10 08:30N 38°15' W 008°48'1 1.9
2017-Nov-10 08:00N 38°15' W 008°47'0 0.1
2017-Nov-10 07:30N 38°15' W 008°47'0 0.1
2017-Nov-10 07:00N 38°15' W 008°47'0 0.7
2017-Nov-10 06:30N 38°15' W 008°47'1 2.5
2017-Nov-10 06:00N 38°15' W 008°49'1 1.0
2017-Nov-10 05:30N 38°16' W 008°49'1 2.1
2017-Nov-10 05:00N 38°17' W 008°49'4 8.3
2017-Nov-10 04:30N 38°20' W 008°52'4 9.0
2017-Nov-10 04:00N 38°23' W 008°56'5 9.1
2017-Nov-10 03:30N 38°25' W 009°02'4 8.8
2017-Nov-10 03:00N 38°26' W 009°07'0 0.1
2017-Nov-10 02:30N 38°26' W 009°07'0 0.0
2017-Nov-10 02:00N 38°26' W 009°07'0 0.0
2017-Nov-10 01:30N 38°26' W 009°07'0 0.0
2017-Nov-10 01:00N 38°26' W 009°07'  
Track history (hours):
 
Tides and Currents Weather Stations Pressure Air Temp Water Temp Dewpoint Dewpoint Depression Visibility Wind Speed Wind Dir Waves Ship Positions

Beatriz Paulo

Last reported at 2017-Nov-20 00:31 UTC. Time now 2017-Nov-21 06:21 UTC.
Position N 38°34' W 009°18'.

Length 22 m.

Type: Fishing. MMSI: 263500236.

Date/timePositionNaut miles runAvg speedWind from/ knotsBaromVisibWave heightAir tempDewpointWater temp
2017-Nov-20 00:31N 38°34' W 009°18'1 1.7
2017-Nov-20 00:00N 38°34' W 009°19'4 7.5
2017-Nov-19 23:31N 38°31' W 009°16'4 8.8
2017-Nov-19 23:01N 38°27' W 009°14'4 7.1
2017-Nov-19 22:31N 38°24' W 009°11'4 8.3
2017-Nov-19 22:01N 38°26' W 009°07'  
2017-Nov-17 11:17N 38°26' W 009°07'2 6.1
2017-Nov-17 11:00N 38°26' W 009°05'5 9.2
2017-Nov-17 10:30N 38°24' W 008°59'5 9.2
2017-Nov-17 10:00N 38°22' W 008°54'3 6.3
2017-Nov-17 09:30N 38°20' W 008°50'1 1.2
2017-Nov-17 09:00N 38°21' W 008°51'3 6.1
2017-Nov-17 08:30N 38°18' W 008°49'4 7.1
2017-Nov-17 08:00N 38°15' W 008°48'3 6.0
2017-Nov-17 07:30N 38°18' W 008°49'2 3.5
2017-Nov-17 07:00N 38°19' W 008°50'1 1.3
2017-Nov-17 06:30N 38°19' W 008°50'0 0.3
2017-Nov-17 06:00N 38°19' W 008°50'0 0.4
2017-Nov-17 05:30N 38°19' W 008°50'0 0.9
2017-Nov-17 05:00N 38°18' W 008°50'4 8.6
2017-Nov-17 04:30N 38°21' W 008°54'4 8.5
2017-Nov-17 04:00N 38°23' W 008°59'4 8.5
2017-Nov-17 03:30N 38°25' W 009°04'3 5.1
2017-Nov-17 03:00N 38°26' W 009°07'0 0.0
2017-Nov-16 15:30N 38°26' W 009°07'0 0.3
2017-Nov-16 15:01N 38°26' W 009°07'0 0.2
2017-Nov-16 14:31N 38°26' W 009°07'0 0.0
2017-Nov-16 14:01N 38°26' W 009°07'0 0.0
2017-Nov-16 13:31N 38°26' W 009°07'0 0.0
2017-Nov-16 13:01N 38°26' W 009°07'0 0.0
2017-Nov-16 12:30N 38°26' W 009°07'0 0.0
2017-Nov-16 12:00N 38°26' W 009°07'4 7.3
2017-Nov-16 11:31N 38°25' W 009°03'5 9.1
2017-Nov-16 11:01N 38°23' W 008°57'5 9.1
2017-Nov-16 10:31N 38°21' W 008°52'3 5.5
2017-Nov-16 10:01N 38°19' W 008°51'0 0.3
2017-Nov-16 09:31N 38°19' W 008°50'0 0.3
2017-Nov-16 09:01N 38°19' W 008°50'0 0.1
2017-Nov-16 08:30N 38°19' W 008°50'0 0.2
2017-Nov-16 08:00N 38°19' W 008°50'1 1.6
2017-Nov-16 07:30N 38°19' W 008°51'0 0.2
2017-Nov-16 06:59N 38°18' W 008°51'0 0.1
2017-Nov-16 06:31N 38°18' W 008°51'0 0.7
2017-Nov-16 06:01N 38°19' W 008°51'0 0.2
2017-Nov-16 05:30N 38°19' W 008°51'0 0.3
2017-Nov-16 05:01N 38°19' W 008°51'0 0.8
2017-Nov-16 04:31N 38°19' W 008°50'3 5.5
2017-Nov-16 04:01N 38°20' W 008°53'4 8.9
2017-Nov-16 03:30N 38°23' W 008°57'8 5.5
2017-Nov-16 02:01N 38°26' W 009°07'0 0.2
2017-Nov-16 02:00N 38°26' W 009°07'0 0.0
2017-Nov-16 01:30N 38°26' W 009°07'0 0.0
2017-Nov-16 00:59N 38°26' W 009°07'0 0.0
2017-Nov-16 00:30N 38°26' W 009°07'0 0.0
2017-Nov-16 00:00N 38°26' W 009°07'0 0.0
2017-Nov-15 23:30N 38°26' W 009°07'0 0.0
2017-Nov-15 23:00N 38°26' W 009°07'0 0.0
2017-Nov-15 22:30N 38°26' W 009°07'0 0.0
2017-Nov-15 22:00N 38°26' W 009°07'0 0.0
2017-Nov-15 21:30N 38°26' W 009°07'0 0.0
2017-Nov-15 21:00N 38°26' W 009°07'0 0.0
2017-Nov-15 20:30N 38°26' W 009°07'0 0.0
2017-Nov-15 20:00N 38°26' W 009°07'0 0.0
2017-Nov-15 19:30N 38°26' W 009°07'0 0.0
2017-Nov-15 19:00N 38°26' W 009°07'0 0.0
2017-Nov-15 18:30N 38°26' W 009°07'0 0.0
2017-Nov-15 18:00N 38°26' W 009°07'0 0.0
2017-Nov-15 17:30N 38°26' W 009°07'0 0.0
2017-Nov-15 17:00N 38°26' W 009°07'0 0.0
2017-Nov-15 16:30N 38°26' W 009°07'0 0.0
2017-Nov-15 15:59N 38°26' W 009°07'0 0.0
2017-Nov-15 15:30N 38°26' W 009°07'0 0.0
2017-Nov-15 15:00N 38°26' W 009°07'0 0.0
2017-Nov-15 14:30N 38°26' W 009°07'0 0.0
2017-Nov-15 14:00N 38°26' W 009°07'0 0.1
2017-Nov-15 13:30N 38°26' W 009°07'0 0.0
2017-Nov-15 13:00N 38°26' W 009°07'3 6.3
2017-Nov-15 12:30N 38°25' W 009°03'5 9.1
2017-Nov-15 12:00N 38°23' W 008°58'5 8.9
2017-Nov-15 11:23N 38°21' W 008°51'0 0.9
2017-Nov-15 11:00N 38°21' W 008°51'0 0.5
2017-Nov-15 10:30N 38°21' W 008°51'0 0.2
2017-Nov-15 09:52N 38°21' W 008°51'0 0.0
2017-Nov-15 09:05N 38°21' W 008°51'0 1.2
2017-Nov-15 09:00N 38°21' W 008°51'3 6.1
2017-Nov-15 08:30N 38°18' W 008°51'0 0.2
2017-Nov-15 08:00N 38°18' W 008°51'0 0.2
2017-Nov-15 07:30N 38°18' W 008°51'0 0.3
2017-Nov-15 07:00N 38°18' W 008°51'0 0.7
2017-Nov-15 06:28N 38°18' W 008°51'0 0.3
2017-Nov-15 06:00N 38°18' W 008°50'2 4.6
2017-Nov-15 05:30N 38°20' W 008°53'4 8.7
2017-Nov-15 05:00N 38°22' W 008°57'4 8.7
2017-Nov-15 04:30N 38°24' W 009°02'4 8.2
2017-Nov-15 04:00N 38°26' W 009°07'0 0.0
2017-Nov-15 03:30N 38°26' W 009°07'0 0.0
2017-Nov-14 14:42N 38°26' W 009°07'0 0.9
2017-Nov-14 14:30N 38°26' W 009°07'0 0.0
2017-Nov-14 14:00N 38°26' W 009°07'2 3.2
2017-Nov-14 13:30N 38°26' W 009°05'4 8.8
2017-Nov-14 13:00N 38°24' W 008°60'5 8.9
2017-Nov-14 12:29N 38°22' W 008°54'3 6.5
2017-Nov-14 12:00N 38°20' W 008°51'0 0.5
2017-Nov-14 11:28N 38°21' W 008°51'0 0.2
2017-Nov-14 11:00N 38°21' W 008°51'0 0.1
2017-Nov-14 10:17N 38°21' W 008°51'0 0.1
2017-Nov-14 10:00N 38°21' W 008°51'2 4.9
2017-Nov-14 09:30N 38°18' W 008°51'1 1.0
2017-Nov-14 09:00N 38°18' W 008°52'0 0.6
2017-Nov-14 08:30N 38°18' W 008°51'0 0.4
2017-Nov-14 08:00N 38°18' W 008°51'0 0.1
2017-Nov-14 07:30N 38°18' W 008°51'0 0.1
2017-Nov-14 07:00N 38°18' W 008°51'1 2.6
2017-Nov-14 06:30N 38°19' W 008°50'1 1.4
2017-Nov-14 06:00N 38°20' W 008°50'1 3.0
2017-Nov-14 05:30N 38°21' W 008°52'4 8.7
2017-Nov-14 05:00N 38°23' W 008°57'4 8.7
2017-Nov-14 04:30N 38°25' W 009°02'4 8.6
2017-Nov-14 04:00N 38°26' W 009°07'0 0.1
2017-Nov-14 03:30N 38°26' W 009°07'  
2017-Nov-11 16:58N 38°26' W 009°07'0 0.1
2017-Nov-11 16:30N 38°26' W 009°07'0 0.0
2017-Nov-11 16:00N 38°26' W 009°07'0 0.0
2017-Nov-11 15:30N 38°26' W 009°07'0 0.0
2017-Nov-11 15:00N 38°26' W 009°07'0 0.0
2017-Nov-10 15:09N 38°26' W 009°07'0 1.2
2017-Nov-10 15:00N 38°26' W 009°07'0 0.0
2017-Nov-10 14:30N 38°26' W 009°07'0 0.0
2017-Nov-10 13:57N 38°26' W 009°07'3 7.0
2017-Nov-10 13:30N 38°25' W 009°03'4 8.8
2017-Nov-10 13:00N 38°22' W 008°59'4 8.6
2017-Nov-10 12:29N 38°20' W 008°54'3 6.6
2017-Nov-10 12:00N 38°19' W 008°50'0 0.9
2017-Nov-10 11:30N 38°19' W 008°50'0 0.8
2017-Nov-10 11:00N 38°19' W 008°50'0 0.6
2017-Nov-10 10:25N 38°20' W 008°50'0 0.3
2017-Nov-10 10:00N 38°20' W 008°50'0 0.2
2017-Nov-10 09:28N 38°20' W 008°50'2 3.8
2017-Nov-10 09:00N 38°18' W 008°51'3 6.8
2017-Nov-10 08:30N 38°15' W 008°48'1 1.9
2017-Nov-10 08:00N 38°15' W 008°47'0 0.1
2017-Nov-10 07:30N 38°15' W 008°47'0 0.1
2017-Nov-10 07:00N 38°15' W 008°47'0 0.7
2017-Nov-10 06:30N 38°15' W 008°47'1 2.5
2017-Nov-10 06:00N 38°15' W 008°49'1 1.0
2017-Nov-10 05:30N 38°16' W 008°49'1 2.1
2017-Nov-10 05:00N 38°17' W 008°49'4 8.3
2017-Nov-10 04:30N 38°20' W 008°52'4 9.0
2017-Nov-10 04:00N 38°23' W 008°56'5 9.1
2017-Nov-10 03:30N 38°25' W 009°02'4 8.8
2017-Nov-10 03:00N 38°26' W 009°07'0 0.1
2017-Nov-10 02:30N 38°26' W 009°07'0 0.0
2017-Nov-10 02:00N 38°26' W 009°07'0 0.0
2017-Nov-10 01:30N 38°26' W 009°07'0 0.0
2017-Nov-10 01:00N 38°26' W 009°07'  

Dump ship's entire track history